Time;durP1;ratioP1;P1;durP2;ratioP2;P2;SDS_P1;SDS_P2;PMS_P1;PMS_P2;Temp;Humidity;BMP_temperature;BMP_pressure;BME280_temperature;BME280_humidity;BME280_pressure;Samples;Min_cycle;Max_cycle;Signal;HPM_P1;HPM_P2
2020/12/14 00:00:46;;;;;;;;;;;19.50;38.40;;;;;;491620;240;1175;-69
2020/12/14 00:02:48;;;;;;;;;;;19.50;38.20;;;;;;491627;240;1121;-69
2020/12/14 00:04:49;;;;;;;;;;;19.60;38.30;;;;;;491630;240;958;-69
2020/12/14 00:06:50;;;;;;;;;;;19.60;38.30;;;;;;491655;238;1199;-69
2020/12/14 00:08:52;;;;;;;;;;;19.50;38.20;;;;;;491578;240;964;-69
2020/12/14 00:10:53;;;;;;;;;;;19.50;38.30;;;;;;491577;240;1021;-69
2020/12/14 00:12:54;;;;;;;;;;;19.50;38.40;;;;;;491582;240;2200;-69
2020/12/14 00:14:56;;;;;;;;;;;19.50;38.30;;;;;;491569;240;1151;-69
2020/12/14 00:16:57;;;;;;;;;;;19.50;38.30;;;;;;491591;240;1315;-69
2020/12/14 00:18:58;;;;;;;;;;;19.50;38.20;;;;;;491593;240;1169;-69
2020/12/14 00:21:00;;;;;;;;;;;19.40;38.20;;;;;;491659;240;1074;-69
2020/12/14 00:23:01;;;;;;;;;;;19.40;38.30;;;;;;491610;240;1148;-69
2020/12/14 00:25:02;;;;;;;;;;;19.40;38.30;;;;;;491693;240;1173;-69
2020/12/14 00:27:03;;;;;;;;;;;19.50;38.30;;;;;;491637;240;1171;-69
2020/12/14 00:29:05;;;;;;;;;;;19.50;38.10;;;;;;491686;240;1119;-69
2020/12/14 00:31:06;;;;;;;;;;;19.50;38.10;;;;;;491721;240;1143;-69
2020/12/14 00:33:07;;;;;;;;;;;19.50;38.10;;;;;;491642;240;2195;-69
2020/12/14 00:35:09;;;;;;;;;;;19.60;38.00;;;;;;491662;240;1154;-69
2020/12/14 00:37:10;;;;;;;;;;;19.50;37.90;;;;;;491630;240;1124;-69
2020/12/14 00:39:11;;;;;;;;;;;19.50;38.00;;;;;;491709;240;1117;-69
2020/12/14 00:41:12;;;;;;;;;;;19.50;37.90;;;;;;491590;240;1089;-70
2020/12/14 00:43:14;;;;;;;;;;;19.50;38.00;;;;;;491637;240;1046;-69
2020/12/14 00:45:15;;;;;;;;;;;19.50;37.80;;;;;;491657;240;1145;-69
2020/12/14 00:47:16;;;;;;;;;;;19.50;37.80;;;;;;491689;240;1069;-69
2020/12/14 00:49:17;;;;;;;;;;;19.50;38.00;;;;;;491693;240;1060;-69
2020/12/14 00:51:19;;;;;;;;;;;19.60;37.90;;;;;;491711;240;1123;-69
2020/12/14 00:53:20;;;;;;;;;;;19.50;37.70;;;;;;491729;240;2199;-69
2020/12/14 00:55:21;;;;;;;;;;;19.60;37.70;;;;;;491636;240;1215;-69
2020/12/14 00:57:23;;;;;;;;;;;19.60;37.70;;;;;;491659;240;1103;-69
2020/12/14 00:59:24;;;;;;;;;;;19.50;37.70;;;;;;491657;240;1074;-69
2020/12/14 01:01:25;;;;;;;;;;;19.50;37.90;;;;;;491666;240;1190;-69
2020/12/14 01:03:26;;;;;;;;;;;19.50;37.90;;;;;;491637;240;952;-69
2020/12/14 01:05:28;;;;;;;;;;;19.50;37.80;;;;;;491658;240;957;-69
2020/12/14 01:07:29;;;;;;;;;;;19.50;37.70;;;;;;491628;240;1181;-69
2020/12/14 01:09:30;;;;;;;;;;;19.50;37.80;;;;;;491623;240;1072;-69
2020/12/14 01:11:31;;;;;;;;;;;19.50;37.80;;;;;;491715;240;975;-69
2020/12/14 01:13:33;;;;;;;;;;;19.50;37.80;;;;;;491735;240;2191;-69
2020/12/14 01:15:34;;;;;;;;;;;19.40;37.90;;;;;;491653;240;1079;-70
2020/12/14 01:17:35;;;;;;;;;;;19.40;38.00;;;;;;491663;240;1209;-69
2020/12/14 01:19:37;;;;;;;;;;;19.50;38.00;;;;;;491682;240;981;-69
2020/12/14 01:21:38;;;;;;;;;;;19.50;37.80;;;;;;491651;240;988;-70
2020/12/14 01:23:39;;;;;;;;;;;19.60;37.90;;;;;;491652;240;1169;-69
2020/12/14 01:25:40;;;;;;;;;;;19.60;37.80;;;;;;491663;240;1031;-69
2020/12/14 01:27:42;;;;;;;;;;;19.60;37.70;;;;;;491774;240;1065;-69
2020/12/14 01:29:43;;;;;;;;;;;19.60;37.80;;;;;;491646;240;1058;-69
2020/12/14 01:31:44;;;;;;;;;;;19.60;37.70;;;;;;491661;240;1180;-69
2020/12/14 01:33:46;;;;;;;;;;;19.60;37.80;;;;;;491672;240;2207;-69
2020/12/14 01:35:47;;;;;;;;;;;19.60;37.90;;;;;;491565;240;1085;-69
2020/12/14 01:37:48;;;;;;;;;;;19.60;37.80;;;;;;491641;240;1074;-69
2020/12/14 01:39:49;;;;;;;;;;;19.50;37.90;;;;;;491634;240;1043;-69
2020/12/14 01:41:51;;;;;;;;;;;19.50;38.10;;;;;;491668;240;1110;-69
2020/12/14 01:43:52;;;;;;;;;;;19.50;38.00;;;;;;491704;240;1081;-69
2020/12/14 01:45:53;;;;;;;;;;;19.50;38.00;;;;;;491605;238;1282;-69
2020/12/14 01:47:54;;;;;;;;;;;19.60;38.00;;;;;;491610;240;1047;-69
2020/12/14 01:49:56;;;;;;;;;;;19.50;38.10;;;;;;491655;240;976;-69
2020/12/14 01:51:57;;;;;;;;;;;19.40;38.30;;;;;;491700;240;1099;-69
2020/12/14 01:53:58;;;;;;;;;;;19.40;38.20;;;;;;491623;240;2192;-69
2020/12/14 01:56:00;;;;;;;;;;;19.40;38.20;;;;;;491667;240;1119;-69
2020/12/14 01:58:01;;;;;;;;;;;19.40;38.20;;;;;;491607;240;1066;-70
2020/12/14 02:00:02;;;;;;;;;;;19.50;38.10;;;;;;491603;240;1052;-69
2020/12/14 02:02:03;;;;;;;;;;;19.40;38.10;;;;;;491624;240;1175;-69
2020/12/14 02:04:05;;;;;;;;;;;19.50;38.00;;;;;;491734;240;950;-69
2020/12/14 02:06:06;;;;;;;;;;;19.50;37.90;;;;;;491662;240;1175;-69
2020/12/14 02:08:08;;;;;;;;;;;19.50;37.80;;;;;;491662;240;957;-69
2020/12/14 02:10:09;;;;;;;;;;;19.50;37.90;;;;;;491636;241;1369;-69
2020/12/14 02:12:10;;;;;;;;;;;19.60;37.90;;;;;;491707;240;1089;-69
2020/12/14 02:14:11;;;;;;;;;;;19.60;37.90;;;;;;491731;240;2184;-69
2020/12/14 02:16:12;;;;;;;;;;;19.50;38.00;;;;;;491671;240;1130;-69
2020/12/14 02:18:14;;;;;;;;;;;19.50;38.00;;;;;;491657;240;997;-69
2020/12/14 02:20:15;;;;;;;;;;;19.50;37.90;;;;;;491636;240;1172;-69
2020/12/14 02:22:16;;;;;;;;;;;19.50;38.00;;;;;;491664;240;1052;-69
2020/12/14 02:24:17;;;;;;;;;;;19.50;38.10;;;;;;491645;240;1115;-70
2020/12/14 02:26:19;;;;;;;;;;;19.40;38.00;;;;;;491627;240;1099;-69
2020/12/14 02:28:20;;;;;;;;;;;19.50;38.00;;;;;;491657;240;1640;-69
2020/12/14 02:30:21;;;;;;;;;;;19.50;38.00;;;;;;491637;240;1002;-69
2020/12/14 02:32:23;;;;;;;;;;;19.50;38.00;;;;;;491683;240;1171;-69
2020/12/14 02:34:24;;;;;;;;;;;19.40;38.00;;;;;;491636;240;2200;-69
2020/12/14 02:36:25;;;;;;;;;;;19.50;38.00;;;;;;491640;240;994;-69
2020/12/14 02:38:27;;;;;;;;;;;19.50;37.80;;;;;;491652;240;1097;-69
2020/12/14 02:40:28;;;;;;;;;;;19.50;37.80;;;;;;491595;240;1098;-69
2020/12/14 02:42:29;;;;;;;;;;;19.60;37.80;;;;;;491581;240;1237;-69
2020/12/14 02:44:30;;;;;;;;;;;19.50;37.70;;;;;;491611;240;978;-69
2020/12/14 02:46:32;;;;;;;;;;;19.50;37.70;;;;;;491553;240;1159;-69
2020/12/14 02:48:33;;;;;;;;;;;19.50;37.80;;;;;;491601;240;1106;-69
2020/12/14 02:50:35;;;;;;;;;;;19.40;37.90;;;;;;491716;240;965;-69
2020/12/14 02:52:37;;;;;;;;;;;19.50;38.00;;;;;;491671;240;972;-70
2020/12/14 02:54:38;;;;;;;;;;;19.50;37.90;;;;;;491714;240;2196;-70
2020/12/14 02:56:39;;;;;;;;;;;19.50;38.00;;;;;;491582;240;1013;-69
2020/12/14 02:58:40;;;;;;;;;;;19.50;37.70;;;;;;491573;240;949;-69
2020/12/14 03:00:42;;;;;;;;;;;19.50;37.70;;;;;;491624;240;1104;-69
2020/12/14 03:02:43;;;;;;;;;;;19.60;37.80;;;;;;491641;240;1175;-69
2020/12/14 03:04:44;;;;;;;;;;;19.50;37.70;;;;;;491641;240;1195;-69
2020/12/14 03:06:45;;;;;;;;;;;19.50;37.60;;;;;;491589;240;1139;-69
2020/12/14 03:08:47;;;;;;;;;;;19.50;37.70;;;;;;491449;240;2000;-69
2020/12/14 03:10:48;;;;;;;;;;;19.50;37.80;;;;;;491567;240;1237;-69
2020/12/14 03:12:49;;;;;;;;;;;19.50;37.70;;;;;;491585;240;965;-70
2020/12/14 03:14:52;;;;;;;;;;;19.50;37.80;;;;;;491601;240;2196;-69
2020/12/14 03:16:53;;;;;;;;;;;19.50;37.60;;;;;;491625;240;1371;-69
2020/12/14 03:18:53;;;;;;;;;;;19.50;37.60;;;;;;491698;240;1423;-69
2020/12/14 03:20:56;;;;;;;;;;;19.40;37.70;;;;;;491623;240;1088;-69
2020/12/14 03:22:58;;;;;;;;;;;19.50;37.80;;;;;;491547;240;1084;-69
2020/12/14 03:24:59;;;;;;;;;;;19.50;37.60;;;;;;491658;240;1069;-69
2020/12/14 03:27:00;;;;;;;;;;;19.40;37.60;;;;;;491627;240;950;-69
2020/12/14 03:29:01;;;;;;;;;;;19.40;37.80;;;;;;491631;240;1086;-69
2020/12/14 03:31:03;;;;;;;;;;;19.40;37.80;;;;;;491576;240;1243;-69
2020/12/14 03:33:04;;;;;;;;;;;19.30;37.80;;;;;;491572;240;1191;-69
2020/12/14 03:35:05;;;;;;;;;;;19.30;37.90;;;;;;491658;240;2188;-69
2020/12/14 03:37:07;;;;;;;;;;;19.30;37.80;;;;;;491568;240;1077;-69
2020/12/14 03:39:08;;;;;;;;;;;19.40;37.70;;;;;;491600;240;951;-69
2020/12/14 03:41:09;;;;;;;;;;;19.30;37.80;;;;;;491556;240;1133;-69
2020/12/14 03:43:10;;;;;;;;;;;19.30;37.80;;;;;;491592;240;991;-69
2020/12/14 03:45:12;;;;;;;;;;;19.30;37.80;;;;;;491547;240;1081;-69
2020/12/14 03:47:13;;;;;;;;;;;19.30;37.70;;;;;;491574;240;1118;-69
2020/12/14 03:49:15;;;;;;;;;;;19.20;37.80;;;;;;491639;240;1058;-69
2020/12/14 03:51:16;;;;;;;;;;;19.20;37.80;;;;;;491689;240;963;-69
2020/12/14 03:53:17;;;;;;;;;;;19.30;37.90;;;;;;491609;240;1080;-70
2020/12/14 03:55:18;;;;;;;;;;;19.30;37.80;;;;;;491631;240;2196;-69
2020/12/14 03:57:20;;;;;;;;;;;19.30;37.90;;;;;;491612;240;1109;-69
2020/12/14 03:59:21;;;;;;;;;;;19.40;37.70;;;;;;491596;240;1116;-69
2020/12/14 04:01:22;;;;;;;;;;;19.40;37.60;;;;;;491606;240;1206;-69
2020/12/14 04:03:24;;;;;;;;;;;19.30;37.50;;;;;;491635;240;1135;-69
2020/12/14 04:05:25;;;;;;;;;;;19.30;37.60;;;;;;491619;242;1422;-69
2020/12/14 04:07:26;;;;;;;;;;;19.30;37.70;;;;;;491584;240;1154;-69
2020/12/14 04:09:27;;;;;;;;;;;19.30;37.60;;;;;;491621;240;979;-70
2020/12/14 04:11:29;;;;;;;;;;;19.30;37.70;;;;;;491583;240;1191;-69
2020/12/14 04:13:30;;;;;;;;;;;19.20;37.70;;;;;;491737;240;965;-69
2020/12/14 04:15:31;;;;;;;;;;;19.30;37.80;;;;;;491635;240;2183;-70
2020/12/14 04:17:32;;;;;;;;;;;19.40;37.60;;;;;;491667;240;1138;-69
2020/12/14 04:19:34;;;;;;;;;;;19.50;37.40;;;;;;491665;240;949;-69
2020/12/14 04:21:35;;;;;;;;;;;19.60;37.20;;;;;;491609;240;1050;-69
2020/12/14 04:23:36;;;;;;;;;;;19.70;37.10;;;;;;491662;240;1055;-69
2020/12/14 04:25:38;;;;;;;;;;;19.70;36.90;;;;;;491642;240;1082;-69
2020/12/14 04:27:39;;;;;;;;;;;19.70;36.80;;;;;;491607;240;953;-70
2020/12/14 04:29:40;;;;;;;;;;;19.80;36.80;;;;;;491655;240;1171;-69
2020/12/14 04:31:42;;;;;;;;;;;19.80;36.60;;;;;;491618;240;1059;-69
2020/12/14 04:33:43;;;;;;;;;;;19.80;36.60;;;;;;491623;240;1196;-69
2020/12/14 04:35:44;;;;;;;;;;;19.90;36.60;;;;;;491629;240;2195;-69
2020/12/14 04:37:46;;;;;;;;;;;19.80;36.50;;;;;;491612;240;1019;-69
2020/12/14 04:39:47;;;;;;;;;;;19.90;36.50;;;;;;491714;240;1179;-70
2020/12/14 04:41:48;;;;;;;;;;;19.90;36.40;;;;;;491657;240;1007;-69
2020/12/14 04:43:49;;;;;;;;;;;19.90;36.40;;;;;;491672;240;1055;-70
2020/12/14 04:45:51;;;;;;;;;;;19.90;36.30;;;;;;491640;240;1168;-69
2020/12/14 04:47:52;;;;;;;;;;;20.10;36.30;;;;;;491626;240;1162;-69
2020/12/14 04:49:53;;;;;;;;;;;20.00;36.20;;;;;;491662;240;1052;-69
2020/12/14 04:51:55;;;;;;;;;;;20.10;36.10;;;;;;491663;240;1063;-69
2020/12/14 04:53:56;;;;;;;;;;;20.00;36.20;;;;;;491658;240;1049;-69
2020/12/14 04:55:57;;;;;;;;;;;20.10;36.10;;;;;;491629;240;2183;-69
2020/12/14 04:57:58;;;;;;;;;;;20.10;36.00;;;;;;491584;240;1054;-69
2020/12/14 05:00:00;;;;;;;;;;;20.00;35.90;;;;;;491598;240;954;-69
2020/12/14 05:02:01;;;;;;;;;;;20.00;36.00;;;;;;491609;240;1198;-69
2020/12/14 05:04:02;;;;;;;;;;;20.00;35.90;;;;;;491571;240;1118;-69
2020/12/14 05:06:03;;;;;;;;;;;20.10;36.00;;;;;;491545;240;1036;-69
2020/12/14 05:08:05;;;;;;;;;;;20.00;35.90;;;;;;491588;240;1096;-69
2020/12/14 05:10:06;;;;;;;;;;;20.00;35.90;;;;;;491610;240;1347;-69
2020/12/14 05:12:07;;;;;;;;;;;20.00;35.90;;;;;;491600;240;1041;-69
2020/12/14 05:14:09;;;;;;;;;;;20.00;35.90;;;;;;491580;240;1050;-68
2020/12/14 05:16:10;;;;;;;;;;;20.10;36.00;;;;;;491567;240;2203;-68
2020/12/14 05:18:11;;;;;;;;;;;20.10;35.90;;;;;;491673;238;1334;-68
2020/12/14 05:20:13;;;;;;;;;;;20.10;35.80;;;;;;491563;240;1035;-68
2020/12/14 05:22:14;;;;;;;;;;;20.10;35.90;;;;;;491537;240;1083;-68
2020/12/14 05:24:15;;;;;;;;;;;20.00;35.70;;;;;;491544;240;1068;-69
2020/12/14 05:26:17;;;;;;;;;;;20.10;35.80;;;;;;491481;240;1049;-69
2020/12/14 05:28:19;;;;;;;;;;;20.10;35.60;;;;;;491431;240;1352;-68
2020/12/14 05:30:19;;;;;;;;;;;20.10;35.60;;;;;;491490;241;1415;-70
2020/12/14 05:32:20;;;;;;;;;;;20.20;35.50;;;;;;491460;240;1093;-69
2020/12/14 05:34:22;;;;;;;;;;;20.10;35.50;;;;;;491441;240;1223;-69
2020/12/14 05:36:23;;;;;;;;;;;20.10;35.50;;;;;;491458;240;2195;-69
2020/12/14 05:38:24;;;;;;;;;;;20.10;35.60;;;;;;491481;240;1100;-69
2020/12/14 05:40:26;;;;;;;;;;;20.10;35.60;;;;;;491552;240;1209;-69
2020/12/14 05:42:27;;;;;;;;;;;20.10;35.60;;;;;;491524;240;1162;-69
2020/12/14 05:44:28;;;;;;;;;;;20.00;35.60;;;;;;491505;240;1175;-69
2020/12/14 05:46:31;;;;;;;;;;;20.10;35.50;;;;;;491434;240;1032;-69
2020/12/14 05:48:31;;;;;;;;;;;20.10;35.50;;;;;;491340;241;1476;-69
2020/12/14 05:50:32;;;;;;;;;;;20.10;35.50;;;;;;491375;240;1184;-69
2020/12/14 05:52:34;;;;;;;;;;;20.10;35.50;;;;;;491309;240;1241;-69
2020/12/14 05:54:34;;;;;;;;;;;20.10;35.50;;;;;;491457;240;1414;-69
2020/12/14 05:56:36;;;;;;;;;;;20.10;35.50;;;;;;491373;240;2184;-69
2020/12/14 05:58:37;;;;;;;;;;;20.10;35.40;;;;;;491518;240;1016;-69
2020/12/14 06:00:38;;;;;;;;;;;20.10;35.40;;;;;;491476;240;1050;-69
2020/12/14 06:02:40;;;;;;;;;;;20.10;35.40;;;;;;491449;240;1024;-69
2020/12/14 06:04:41;;;;;;;;;;;20.10;35.30;;;;;;491501;240;1185;-69
2020/12/14 06:06:42;;;;;;;;;;;20.00;35.40;;;;;;491438;240;1026;-69
2020/12/14 06:08:43;;;;;;;;;;;20.10;35.50;;;;;;491430;240;964;-69
2020/12/14 06:10:45;;;;;;;;;;;20.10;35.40;;;;;;491424;240;981;-69
2020/12/14 06:12:46;;;;;;;;;;;20.10;35.40;;;;;;491385;240;1046;-69
2020/12/14 06:14:47;;;;;;;;;;;20.10;35.30;;;;;;491346;240;1032;-69
2020/12/14 06:16:48;;;;;;;;;;;20.20;35.20;;;;;;491363;240;2178;-69
2020/12/14 06:18:50;;;;;;;;;;;20.10;35.20;;;;;;491376;240;1400;-69
2020/12/14 06:20:51;;;;;;;;;;;20.10;35.20;;;;;;491364;240;1041;-70
2020/12/14 06:22:52;;;;;;;;;;;20.10;35.20;;;;;;491403;240;1171;-69
2020/12/14 06:24:54;;;;;;;;;;;20.00;35.20;;;;;;491392;240;1049;-69
2020/12/14 06:26:55;;;;;;;;;;;20.00;35.20;;;;;;491360;240;1095;-69
2020/12/14 06:28:56;;;;;;;;;;;20.10;35.10;;;;;;491306;240;1209;-69
2020/12/14 06:30:57;;;;;;;;;;;20.10;35.20;;;;;;491112;240;1094;-69
2020/12/14 06:32:59;;;;;;;;;;;20.10;35.00;;;;;;491254;240;1050;-69
2020/12/14 06:35:00;;;;;;;;;;;20.00;35.00;;;;;;491222;240;2199;-69
2020/12/14 06:37:02;;;;;;;;;;;20.10;34.90;;;;;;491185;240;1056;-69
2020/12/14 06:39:03;;;;;;;;;;;20.00;35.00;;;;;;491297;240;1053;-69
2020/12/14 06:41:04;;;;;;;;;;;20.10;34.90;;;;;;491353;240;1109;-69
2020/12/14 06:43:06;;;;;;;;;;;20.10;34.90;;;;;;491319;240;1000;-69
2020/12/14 06:45:07;;;;;;;;;;;20.00;34.90;;;;;;491288;240;1281;-69
2020/12/14 06:47:08;;;;;;;;;;;20.10;34.80;;;;;;491305;240;1340;-69
2020/12/14 06:49:10;;;;;;;;;;;20.10;34.70;;;;;;491201;240;1246;-69
2020/12/14 06:51:11;;;;;;;;;;;20.10;34.70;;;;;;491176;240;1089;-69
2020/12/14 06:53:12;;;;;;;;;;;20.10;34.60;;;;;;491135;240;1067;-69
2020/12/14 06:55:13;;;;;;;;;;;20.10;34.70;;;;;;491319;240;2191;-69
2020/12/14 06:57:15;;;;;;;;;;;20.10;34.50;;;;;;491318;240;973;-69
2020/12/14 06:59:16;;;;;;;;;;;20.10;34.60;;;;;;491408;240;1164;-69
2020/12/14 07:01:17;;;;;;;;;;;20.10;34.60;;;;;;491346;240;1059;-69
2020/12/14 07:03:18;;;;;;;;;;;20.10;34.60;;;;;;491262;240;1100;-69
2020/12/14 07:05:20;;;;;;;;;;;20.10;34.50;;;;;;491285;240;1185;-69
2020/12/14 07:07:21;;;;;;;;;;;20.20;34.40;;;;;;491329;240;1059;-69
2020/12/14 07:09:22;;;;;;;;;;;20.20;34.30;;;;;;491260;240;1148;-69
2020/12/14 07:11:24;;;;;;;;;;;20.20;34.30;;;;;;491237;240;1046;-69
2020/12/14 07:13:25;;;;;;;;;;;20.20;34.20;;;;;;491178;240;1072;-69
2020/12/14 07:15:26;;;;;;;;;;;20.40;34.00;;;;;;491012;240;2163;-69
2020/12/14 07:17:27;;;;;;;;;;;20.40;33.70;;;;;;491065;240;1214;-69
2020/12/14 07:19:29;;;;;;;;;;;20.50;33.70;;;;;;491023;240;1154;-69
2020/12/14 07:21:30;;;;;;;;;;;20.50;33.50;;;;;;491115;240;1083;-70
2020/12/14 07:23:31;;;;;;;;;;;20.60;33.50;;;;;;490794;240;1200;-69
2020/12/14 07:25:33;;;;;;;;;;;20.60;33.40;;;;;;491039;240;1112;-69
2020/12/14 07:27:34;;;;;;;;;;;20.60;33.30;;;;;;490877;240;1223;-69
2020/12/14 07:29:36;;;;;;;;;;;20.60;33.40;;;;;;490887;240;1035;-69
2020/12/14 07:31:37;;;;;;;;;;;20.60;33.30;;;;;;491036;240;1206;-69
2020/12/14 07:33:38;;;;;;;;;;;20.50;33.40;;;;;;490892;240;1235;-69
2020/12/14 07:35:39;;;;;;;;;;;20.50;33.40;;;;;;490725;240;2187;-69
2020/12/14 07:37:41;;;;;;;;;;;20.50;33.40;;;;;;490943;240;1047;-69
2020/12/14 07:39:42;;;;;;;;;;;20.40;33.30;;;;;;491055;240;1028;-69
2020/12/14 07:41:43;;;;;;;;;;;20.40;33.40;;;;;;491020;240;1047;-69
2020/12/14 07:43:45;;;;;;;;;;;20.40;33.40;;;;;;490932;240;1025;-69
2020/12/14 07:45:46;;;;;;;;;;;20.50;33.30;;;;;;490843;240;1063;-69
2020/12/14 07:47:47;;;;;;;;;;;20.50;33.30;;;;;;490802;240;1081;-69
2020/12/14 07:49:48;;;;;;;;;;;20.40;33.40;;;;;;490855;238;1306;-69
2020/12/14 07:51:50;;;;;;;;;;;20.40;33.40;;;;;;490714;240;1125;-69
2020/12/14 07:53:51;;;;;;;;;;;20.40;33.60;;;;;;490814;240;1142;-69
2020/12/14 07:55:52;;;;;;;;;;;20.40;33.50;;;;;;490941;240;2187;-69
2020/12/14 07:57:54;;;;;;;;;;;20.40;33.60;;;;;;490902;240;1118;-69
2020/12/14 07:59:55;;;;;;;;;;;20.40;33.50;;;;;;490753;240;1102;-69
2020/12/14 08:01:56;;;;;;;;;;;20.40;33.50;;;;;;490750;240;1370;-69
2020/12/14 08:03:57;;;;;;;;;;;20.40;33.50;;;;;;490775;240;1064;-69
2020/12/14 08:06:00;;;;;;;;;;;20.50;33.50;;;;;;490878;240;1700;-69
2020/12/14 08:08:00;;;;;;;;;;;20.50;33.40;;;;;;490833;240;1422;-69
2020/12/14 08:10:02;;;;;;;;;;;20.50;33.50;;;;;;490782;240;1023;-69
2020/12/14 08:12:03;;;;;;;;;;;20.50;33.50;;;;;;490849;240;1220;-69
2020/12/14 08:14:04;;;;;;;;;;;20.40;33.70;;;;;;490984;240;1459;-69
2020/12/14 08:16:05;;;;;;;;;;;20.40;33.70;;;;;;490853;240;2206;-69
2020/12/14 08:18:07;;;;;;;;;;;20.30;33.70;;;;;;491013;240;1115;-69
2020/12/14 08:20:08;;;;;;;;;;;20.40;33.70;;;;;;490937;240;1162;-69
2020/12/14 08:22:10;;;;;;;;;;;20.40;33.60;;;;;;490888;240;1069;-69
2020/12/14 08:24:11;;;;;;;;;;;20.50;33.60;;;;;;490915;240;1042;-70
2020/12/14 08:26:12;;;;;;;;;;;20.50;33.60;;;;;;490950;240;1050;-69
2020/12/14 08:28:13;;;;;;;;;;;20.50;33.50;;;;;;490928;240;1140;-70
2020/12/14 08:30:15;;;;;;;;;;;20.50;33.60;;;;;;491010;240;1067;-70
2020/12/14 08:32:16;;;;;;;;;;;20.50;33.60;;;;;;490845;240;1161;-69
2020/12/14 08:34:17;;;;;;;;;;;20.50;33.50;;;;;;490871;240;1068;-69
2020/12/14 08:36:19;;;;;;;;;;;20.50;33.50;;;;;;490676;240;2187;-69
2020/12/14 08:38:20;;;;;;;;;;;20.50;33.70;;;;;;490796;240;1053;-69
2020/12/14 08:40:21;;;;;;;;;;;20.50;33.70;;;;;;490930;240;1067;-69
2020/12/14 08:42:22;;;;;;;;;;;20.50;33.70;;;;;;490941;240;1033;-69
2020/12/14 08:44:24;;;;;;;;;;;20.50;33.70;;;;;;490735;240;1167;-69
2020/12/14 08:46:25;;;;;;;;;;;20.50;33.70;;;;;;490796;240;1201;-70
2020/12/14 08:48:26;;;;;;;;;;;20.60;33.60;;;;;;490935;240;1085;-69
2020/12/14 08:50:28;;;;;;;;;;;20.50;33.70;;;;;;490860;240;1174;-69
2020/12/14 08:52:29;;;;;;;;;;;20.50;33.80;;;;;;490854;240;1091;-71
2020/12/14 08:54:30;;;;;;;;;;;20.50;33.80;;;;;;490798;240;1094;-70
2020/12/14 08:56:31;;;;;;;;;;;20.50;33.80;;;;;;490717;240;2196;-70
2020/12/14 08:58:33;;;;;;;;;;;20.40;34.00;;;;;;490786;240;1016;-70
2020/12/14 09:00:34;;;;;;;;;;;20.40;34.00;;;;;;490639;240;1106;-70
2020/12/14 09:02:36;;;;;;;;;;;20.40;34.00;;;;;;490708;240;1182;-70
2020/12/14 09:04:37;;;;;;;;;;;20.40;34.10;;;;;;490879;240;1188;-70
2020/12/14 09:06:38;;;;;;;;;;;20.40;34.10;;;;;;490855;240;1109;-69
2020/12/14 09:08:39;;;;;;;;;;;20.40;34.10;;;;;;490821;240;991;-71
2020/12/14 09:10:40;;;;;;;;;;;20.40;34.20;;;;;;490757;240;1180;-70
2020/12/14 09:12:42;;;;;;;;;;;20.40;34.30;;;;;;490788;240;1024;-72
2020/12/14 09:14:43;;;;;;;;;;;20.40;34.30;;;;;;490808;240;1113;-71
2020/12/14 09:16:44;;;;;;;;;;;20.40;34.30;;;;;;490987;240;2187;-73
2020/12/14 09:18:45;;;;;;;;;;;20.40;34.30;;;;;;490873;240;1102;-72
2020/12/14 09:20:47;;;;;;;;;;;20.40;34.30;;;;;;490738;240;1396;-72
2020/12/14 09:22:48;;;;;;;;;;;20.40;34.30;;;;;;490664;240;1023;-73
2020/12/14 09:24:49;;;;;;;;;;;20.50;34.30;;;;;;490930;240;1077;-73
2020/12/14 09:26:51;;;;;;;;;;;20.50;34.20;;;;;;490859;240;1099;-73
2020/12/14 09:28:52;;;;;;;;;;;20.40;34.30;;;;;;490792;240;1051;-73
2020/12/14 09:30:53;;;;;;;;;;;20.40;34.30;;;;;;490754;240;999;-73
2020/12/14 09:32:55;;;;;;;;;;;20.50;34.30;;;;;;490772;240;958;-73
2020/12/14 09:34:56;;;;;;;;;;;20.50;35.90;;;;;;491042;240;1047;-74
2020/12/14 09:36:57;;;;;;;;;;;20.60;35.80;;;;;;490904;240;2172;-74
2020/12/14 09:38:59;;;;;;;;;;;20.50;35.90;;;;;;490994;240;985;-73
2020/12/14 09:41:00;;;;;;;;;;;20.50;35.80;;;;;;490957;240;1106;-74
2020/12/14 09:43:01;;;;;;;;;;;20.50;35.80;;;;;;490825;240;1029;-74
2020/12/14 09:45:05;;;;;;;;;;;20.60;35.90;;;;;;490813;240;1113;-74
2020/12/14 09:47:05;;;;;;;;;;;20.60;35.70;;;;;;490896;241;1370;-74
2020/12/14 09:49:06;;;;;;;;;;;20.70;35.50;;;;;;490800;240;1052;-74
2020/12/14 09:51:07;;;;;;;;;;;20.70;35.40;;;;;;490692;240;1096;-74
2020/12/14 09:53:09;;;;;;;;;;;20.70;35.30;;;;;;490639;240;1065;-74
2020/12/14 09:55:10;;;;;;;;;;;20.80;35.10;;;;;;490820;240;963;-72
2020/12/14 09:57:11;;;;;;;;;;;20.90;35.00;;;;;;490649;240;2196;-73
2020/12/14 09:59:12;;;;;;;;;;;20.90;34.80;;;;;;490758;240;1034;-72
2020/12/14 10:01:14;;;;;;;;;;;20.90;34.80;;;;;;490864;238;1432;-72
2020/12/14 10:03:15;;;;;;;;;;;20.90;34.80;;;;;;490890;240;1144;-73
2020/12/14 10:05:16;;;;;;;;;;;20.90;34.80;;;;;;490632;240;1279;-73
2020/12/14 10:07:17;;;;;;;;;;;20.90;34.70;;;;;;490819;240;1353;-73
2020/12/14 10:09:19;;;;;;;;;;;20.90;34.60;;;;;;490812;240;1111;-73
2020/12/14 10:11:20;;;;;;;;;;;20.90;34.60;;;;;;490795;240;1085;-73
2020/12/14 10:13:21;;;;;;;;;;;20.90;34.50;;;;;;490846;240;1064;-73
2020/12/14 10:15:23;;;;;;;;;;;20.90;34.50;;;;;;490818;240;1010;-73
2020/12/14 10:17:24;;;;;;;;;;;20.90;34.50;;;;;;490846;240;2196;-73
2020/12/14 10:19:25;;;;;;;;;;;20.90;34.50;;;;;;490840;240;1137;-73
2020/12/14 10:21:27;;;;;;;;;;;20.90;34.50;;;;;;490838;240;1170;-73
2020/12/14 10:23:28;;;;;;;;;;;20.90;34.60;;;;;;490967;240;1190;-72
2020/12/14 10:25:29;;;;;;;;;;;20.80;34.40;;;;;;490334;240;1042;-73
2020/12/14 10:27:31;;;;;;;;;;;20.80;34.50;;;;;;490383;240;1203;-73
2020/12/14 10:29:32;;;;;;;;;;;20.80;34.40;;;;;;490876;240;1118;-72
2020/12/14 10:31:33;;;;;;;;;;;20.80;34.50;;;;;;490687;240;1047;-64
2020/12/14 10:33:34;;;;;;;;;;;20.90;34.40;;;;;;490838;240;1145;-73
2020/12/14 10:35:36;;;;;;;;;;;21.10;34.10;;;;;;490715;240;1046;-72
2020/12/14 10:37:37;;;;;;;;;;;21.00;34.10;;;;;;490730;240;2171;-74
2020/12/14 10:39:39;;;;;;;;;;;21.00;34.30;;;;;;490615;240;1020;-69
2020/12/14 10:41:40;;;;;;;;;;;21.00;34.20;;;;;;490563;240;1081;-72
2020/12/14 10:43:41;;;;;;;;;;;20.90;34.20;;;;;;490661;240;1016;-74
2020/12/14 10:45:43;;;;;;;;;;;21.00;34.30;;;;;;490563;240;1036;-74
2020/12/14 10:47:44;;;;;;;;;;;21.00;34.30;;;;;;490561;240;1090;-73
2020/12/14 10:49:45;;;;;;;;;;;20.90;34.40;;;;;;490633;240;1040;-66
2020/12/14 10:51:47;;;;;;;;;;;21.10;34.10;;;;;;490557;240;1217;-66
2020/12/14 10:53:48;;;;;;;;;;;21.10;34.30;;;;;;490727;240;1035;-72
2020/12/14 10:55:49;;;;;;;;;;;21.00;34.40;;;;;;490711;240;1150;-71
2020/12/14 10:57:50;;;;;;;;;;;21.00;34.30;;;;;;490798;240;2175;-71
2020/12/14 10:59:55;;;;;;;;;;;21.00;34.40;;;;;;490901;240;1149;-71
2020/12/14 11:01:53;;;;;;;;;;;20.90;34.60;;;;;;490870;241;1396;-71
2020/12/14 11:03:55;;;;;;;;;;;20.90;34.60;;;;;;490935;240;1078;-71
2020/12/14 11:05:56;;;;;;;;;;;20.90;34.70;;;;;;490805;240;1272;-71
2020/12/14 11:07:57;;;;;;;;;;;20.90;34.70;;;;;;490807;240;1260;-71
2020/12/14 11:09:58;;;;;;;;;;;20.90;34.70;;;;;;490874;240;1076;-71
2020/12/14 11:12:00;;;;;;;;;;;20.90;34.60;;;;;;490676;240;1115;-71
2020/12/14 11:14:01;;;;;;;;;;;20.90;34.70;;;;;;490711;240;1028;-71
2020/12/14 11:16:02;;;;;;;;;;;20.90;34.70;;;;;;490810;240;1116;-71
2020/12/14 11:18:03;;;;;;;;;;;20.90;34.70;;;;;;490857;240;2173;-71
2020/12/14 11:20:05;;;;;;;;;;;20.90;34.70;;;;;;490869;240;1006;-71
2020/12/14 11:22:06;;;;;;;;;;;20.90;34.70;;;;;;490830;240;1273;-71
2020/12/14 11:24:07;;;;;;;;;;;21.00;34.60;;;;;;490859;240;1206;-71
2020/12/14 11:26:09;;;;;;;;;;;20.90;34.60;;;;;;490806;240;1062;-71
2020/12/14 11:28:10;;;;;;;;;;;20.90;34.70;;;;;;490699;240;1049;-71
2020/12/14 11:30:11;;;;;;;;;;;20.90;34.60;;;;;;490656;240;1102;-71
2020/12/14 11:32:12;;;;;;;;;;;21.00;34.70;;;;;;490641;240;1191;-71
2020/12/14 11:34:14;;;;;;;;;;;21.00;34.60;;;;;;490598;240;1199;-71
2020/12/14 11:36:15;;;;;;;;;;;21.00;34.60;;;;;;490466;240;1364;-71
2020/12/14 11:38:17;;;;;;;;;;;20.90;34.60;;;;;;490539;240;2180;-70
2020/12/14 11:40:18;;;;;;;;;;;20.90;34.70;;;;;;490862;240;1056;-71
2020/12/14 11:42:19;;;;;;;;;;;21.00;34.70;;;;;;490854;240;1093;-71
2020/12/14 11:44:20;;;;;;;;;;;21.00;34.60;;;;;;490880;240;1100;-71
2020/12/14 11:46:22;;;;;;;;;;;21.00;34.60;;;;;;490848;240;1080;-71
2020/12/14 11:48:23;;;;;;;;;;;21.00;34.70;;;;;;490908;240;1108;-71
2020/12/14 11:50:24;;;;;;;;;;;20.90;34.70;;;;;;490724;240;1075;-71
2020/12/14 11:52:26;;;;;;;;;;;21.00;34.80;;;;;;490664;240;1141;-71
2020/12/14 11:54:27;;;;;;;;;;;21.00;34.80;;;;;;490752;240;1036;-71
2020/12/14 11:56:28;;;;;;;;;;;21.10;34.80;;;;;;490775;240;1071;-71